sensor_id;sensor_type;location;lat;lon;timestamp;temperature;humidity
8939;DHT22;4504;48.810;9.172;2023-01-28T00:01:12;1.70;99.90
8939;DHT22;4504;48.810;9.172;2023-01-28T00:03:41;1.70;99.90
8939;DHT22;4504;48.810;9.172;2023-01-28T00:06:10;1.80;99.90
8939;DHT22;4504;48.810;9.172;2023-01-28T00:08:38;1.70;99.90
8939;DHT22;4504;48.810;9.172;2023-01-28T00:11:07;1.80;99.90
8939;DHT22;4504;48.810;9.172;2023-01-28T00:13:34;1.80;99.90
8939;DHT22;4504;48.810;9.172;2023-01-28T00:16:02;1.80;99.90
8939;DHT22;4504;48.810;9.172;2023-01-28T00:18:30;1.80;99.90
8939;DHT22;4504;48.810;9.172;2023-01-28T00:21:00;1.80;99.90
8939;DHT22;4504;48.810;9.172;2023-01-28T00:23:29;1.80;99.90
8939;DHT22;4504;48.810;9.172;2023-01-28T00:25:57;1.80;99.90
8939;DHT22;4504;48.810;9.172;2023-01-28T00:28:24;1.80;99.90
8939;DHT22;4504;48.810;9.172;2023-01-28T00:30:51;1.80;99.90
8939;DHT22;4504;48.810;9.172;2023-01-28T00:33:18;1.80;99.90
8939;DHT22;4504;48.810;9.172;2023-01-28T00:35:45;1.80;99.90
8939;DHT22;4504;48.810;9.172;2023-01-28T00:38:15;1.80;99.90
8939;DHT22;4504;48.810;9.172;2023-01-28T00:40:41;1.80;99.90
8939;DHT22;4504;48.810;9.172;2023-01-28T00:43:09;1.80;99.90
8939;DHT22;4504;48.810;9.172;2023-01-28T00:45:36;1.90;99.90
8939;DHT22;4504;48.810;9.172;2023-01-28T00:48:04;1.90;99.90
8939;DHT22;4504;48.810;9.172;2023-01-28T00:50:31;1.80;99.90
8939;DHT22;4504;48.810;9.172;2023-01-28T00:52:58;1.80;99.90
8939;DHT22;4504;48.810;9.172;2023-01-28T00:55:26;1.80;99.90
8939;DHT22;4504;48.810;9.172;2023-01-28T00:57:54;1.90;99.90
8939;DHT22;4504;48.810;9.172;2023-01-28T01:00:21;1.80;99.90
8939;DHT22;4504;48.810;9.172;2023-01-28T01:02:50;1.80;99.90
8939;DHT22;4504;48.810;9.172;2023-01-28T01:05:17;1.80;99.90
8939;DHT22;4504;48.810;9.172;2023-01-28T01:07:44;1.80;99.90
8939;DHT22;4504;48.810;9.172;2023-01-28T01:10:14;1.80;99.90
8939;DHT22;4504;48.810;9.172;2023-01-28T01:12:45;1.80;99.90
8939;DHT22;4504;48.810;9.172;2023-01-28T01:15:13;1.80;99.90
8939;DHT22;4504;48.810;9.172;2023-01-28T01:17:42;1.80;99.90
8939;DHT22;4504;48.810;9.172;2023-01-28T01:20:12;1.80;99.90
8939;DHT22;4504;48.810;9.172;2023-01-28T01:22:39;1.80;99.90
8939;DHT22;4504;48.810;9.172;2023-01-28T01:25:07;1.80;99.90
8939;DHT22;4504;48.810;9.172;2023-01-28T01:27:35;1.80;99.90
8939;DHT22;4504;48.810;9.172;2023-01-28T01:30:04;1.80;99.90
8939;DHT22;4504;48.810;9.172;2023-01-28T01:32:33;1.80;99.90
8939;DHT22;4504;48.810;9.172;2023-01-28T01:35:00;1.80;99.90
8939;DHT22;4504;48.810;9.172;2023-01-28T01:37:28;1.90;99.90
8939;DHT22;4504;48.810;9.172;2023-01-28T01:39:55;1.90;99.90
8939;DHT22;4504;48.810;9.172;2023-01-28T01:42:23;1.90;99.90
8939;DHT22;4504;48.810;9.172;2023-01-28T01:44:59;1.90;99.90
8939;DHT22;4504;48.810;9.172;2023-01-28T01:47:33;1.90;99.90
8939;DHT22;4504;48.810;9.172;2023-01-28T01:50:03;1.90;99.90
8939;DHT22;4504;48.810;9.172;2023-01-28T01:52:34;1.90;99.90
8939;DHT22;4504;48.810;9.172;2023-01-28T01:55:06;1.90;99.90
8939;DHT22;4504;48.810;9.172;2023-01-28T01:57:35;1.90;99.90
8939;DHT22;4504;48.810;9.172;2023-01-28T02:00:05;1.80;99.90
8939;DHT22;4504;48.810;9.172;2023-01-28T02:02:46;1.80;99.90
8939;DHT22;4504;48.810;9.172;2023-01-28T02:05:17;1.90;99.90
8939;DHT22;4504;48.810;9.172;2023-01-28T02:07:46;1.90;99.90
8939;DHT22;4504;48.810;9.172;2023-01-28T02:10:14;1.90;99.90
8939;DHT22;4504;48.810;9.172;2023-01-28T02:12:43;1.90;99.90
8939;DHT22;4504;48.810;9.172;2023-01-28T02:15:14;1.80;99.90
8939;DHT22;4504;48.810;9.172;2023-01-28T02:17:43;1.80;99.90
8939;DHT22;4504;48.810;9.172;2023-01-28T02:20:12;1.90;99.90
8939;DHT22;4504;48.810;9.172;2023-01-28T02:28:26;1.90;99.90
8939;DHT22;4504;48.810;9.172;2023-01-28T02:31:00;1.90;99.90
8939;DHT22;4504;48.810;9.172;2023-01-28T02:33:33;1.80;99.90
8939;DHT22;4504;48.810;9.172;2023-01-28T02:36:09;1.80;99.90
8939;DHT22;4504;48.810;9.172;2023-01-28T02:38:42;1.80;99.90
8939;DHT22;4504;48.810;9.172;2023-01-28T02:41:19;1.80;99.90
8939;DHT22;4504;48.810;9.172;2023-01-28T02:43:49;1.80;99.90
8939;DHT22;4504;48.810;9.172;2023-01-28T02:46:21;1.80;99.90
8939;DHT22;4504;48.810;9.172;2023-01-28T02:49:10;1.80;99.90
8939;DHT22;4504;48.810;9.172;2023-01-28T02:54:44;1.80;99.90
8939;DHT22;4504;48.810;9.172;2023-01-28T02:57:24;1.80;99.90
8939;DHT22;4504;48.810;9.172;2023-01-28T03:00:03;1.80;99.90
8939;DHT22;4504;48.810;9.172;2023-01-28T03:02:36;1.90;99.90
8939;DHT22;4504;48.810;9.172;2023-01-28T03:05:12;1.80;99.90
8939;DHT22;4504;48.810;9.172;2023-01-28T03:07:40;1.90;99.90
8939;DHT22;4504;48.810;9.172;2023-01-28T03:10:13;1.90;99.90
8939;DHT22;4504;48.810;9.172;2023-01-28T03:12:43;1.90;99.90
8939;DHT22;4504;48.810;9.172;2023-01-28T03:15:33;1.90;99.90
8939;DHT22;4504;48.810;9.172;2023-01-28T03:18:22;1.90;99.90
8939;DHT22;4504;48.810;9.172;2023-01-28T03:21:10;1.90;99.90
8939;DHT22;4504;48.810;9.172;2023-01-28T03:23:58;1.90;99.90
8939;DHT22;4504;48.810;9.172;2023-01-28T03:26:49;1.90;99.90
8939;DHT22;4504;48.810;9.172;2023-01-28T03:29:38;1.80;99.90
8939;DHT22;4504;48.810;9.172;2023-01-28T03:32:27;1.90;99.90
8939;DHT22;4504;48.810;9.172;2023-01-28T03:35:14;1.80;99.90
8939;DHT22;4504;48.810;9.172;2023-01-28T03:38:00;1.80;99.90
8939;DHT22;4504;48.810;9.172;2023-01-28T03:40:48;1.80;99.90
8939;DHT22;4504;48.810;9.172;2023-01-28T03:43:16;1.80;99.90
8939;DHT22;4504;48.810;9.172;2023-01-28T03:45:45;1.80;99.90
8939;DHT22;4504;48.810;9.172;2023-01-28T03:48:17;1.80;99.90
8939;DHT22;4504;48.810;9.172;2023-01-28T03:50:44;1.80;99.90
8939;DHT22;4504;48.810;9.172;2023-01-28T03:53:12;1.80;99.90
8939;DHT22;4504;48.810;9.172;2023-01-28T03:55:52;1.80;99.90
8939;DHT22;4504;48.810;9.172;2023-01-28T03:58:20;1.90;99.90
8939;DHT22;4504;48.810;9.172;2023-01-28T04:00:47;1.90;99.90
8939;DHT22;4504;48.810;9.172;2023-01-28T04:03:17;1.90;99.90
8939;DHT22;4504;48.810;9.172;2023-01-28T04:05:59;1.90;99.90
8939;DHT22;4504;48.810;9.172;2023-01-28T04:08:38;1.90;99.90
8939;DHT22;4504;48.810;9.172;2023-01-28T04:11:29;1.90;99.90
8939;DHT22;4504;48.810;9.172;2023-01-28T04:13:58;1.90;99.90
8939;DHT22;4504;48.810;9.172;2023-01-28T04:16:32;1.90;99.90
8939;DHT22;4504;48.810;9.172;2023-01-28T04:19:01;1.90;99.90
8939;DHT22;4504;48.810;9.172;2023-01-28T04:21:28;1.90;99.90
8939;DHT22;4504;48.810;9.172;2023-01-28T04:23:55;1.80;99.90
8939;DHT22;4504;48.810;9.172;2023-01-28T04:26:22;1.80;99.90
8939;DHT22;4504;48.810;9.172;2023-01-28T04:28:49;1.80;99.90
8939;DHT22;4504;48.810;9.172;2023-01-28T04:31:17;1.80;99.90
8939;DHT22;4504;48.810;9.172;2023-01-28T04:33:54;1.80;99.90
8939;DHT22;4504;48.810;9.172;2023-01-28T04:36:37;1.80;99.90
8939;DHT22;4504;48.810;9.172;2023-01-28T04:39:17;1.80;99.90
8939;DHT22;4504;48.810;9.172;2023-01-28T04:42:07;1.90;99.90
8939;DHT22;4504;48.810;9.172;2023-01-28T04:44:51;1.80;99.90
8939;DHT22;4504;48.810;9.172;2023-01-28T04:47:47;1.80;99.90
8939;DHT22;4504;48.810;9.172;2023-01-28T04:50:31;1.80;99.90
8939;DHT22;4504;48.810;9.172;2023-01-28T04:53:19;1.90;99.90
8939;DHT22;4504;48.810;9.172;2023-01-28T04:55:55;1.80;99.90
8939;DHT22;4504;48.810;9.172;2023-01-28T04:58:23;1.90;99.90
8939;DHT22;4504;48.810;9.172;2023-01-28T05:00:54;1.80;99.90
8939;DHT22;4504;48.810;9.172;2023-01-28T05:03:21;1.90;99.90
8939;DHT22;4504;48.810;9.172;2023-01-28T05:05:48;1.90;99.90
8939;DHT22;4504;48.810;9.172;2023-01-28T05:08:37;1.90;99.90
8939;DHT22;4504;48.810;9.172;2023-01-28T05:11:04;1.90;99.90
8939;DHT22;4504;48.810;9.172;2023-01-28T05:13:31;1.90;99.90
8939;DHT22;4504;48.810;9.172;2023-01-28T05:15:59;1.90;99.90
8939;DHT22;4504;48.810;9.172;2023-01-28T05:18:26;2.00;99.90
8939;DHT22;4504;48.810;9.172;2023-01-28T05:21:04;1.90;99.90
8939;DHT22;4504;48.810;9.172;2023-01-28T05:23:35;2.00;99.90
8939;DHT22;4504;48.810;9.172;2023-01-28T05:26:03;2.00;99.90
8939;DHT22;4504;48.810;9.172;2023-01-28T05:28:30;2.00;99.90
8939;DHT22;4504;48.810;9.172;2023-01-28T05:31:02;2.00;99.90
8939;DHT22;4504;48.810;9.172;2023-01-28T05:33:29;1.90;99.90
8939;DHT22;4504;48.810;9.172;2023-01-28T05:35:56;2.00;99.90
8939;DHT22;4504;48.810;9.172;2023-01-28T05:38:23;2.00;99.90
8939;DHT22;4504;48.810;9.172;2023-01-28T05:40:50;2.00;99.90
8939;DHT22;4504;48.810;9.172;2023-01-28T05:43:19;2.00;99.90
8939;DHT22;4504;48.810;9.172;2023-01-28T05:46:09;2.00;99.90
8939;DHT22;4504;48.810;9.172;2023-01-28T05:48:55;2.00;99.90
8939;DHT22;4504;48.810;9.172;2023-01-28T05:51:48;2.00;99.90
8939;DHT22;4504;48.810;9.172;2023-01-28T05:54:18;2.00;99.90
8939;DHT22;4504;48.810;9.172;2023-01-28T05:56:46;1.90;99.90
8939;DHT22;4504;48.810;9.172;2023-01-28T05:59:14;1.90;99.90
8939;DHT22;4504;48.810;9.172;2023-01-28T06:01:43;1.90;99.90
8939;DHT22;4504;48.810;9.172;2023-01-28T06:04:10;1.90;99.90
8939;DHT22;4504;48.810;9.172;2023-01-28T06:06:38;1.90;99.90
8939;DHT22;4504;48.810;9.172;2023-01-28T06:09:05;1.90;99.90
8939;DHT22;4504;48.810;9.172;2023-01-28T06:11:34;1.90;99.90
8939;DHT22;4504;48.810;9.172;2023-01-28T06:14:03;1.90;99.90
8939;DHT22;4504;48.810;9.172;2023-01-28T06:16:50;2.00;99.90
8939;DHT22;4504;48.810;9.172;2023-01-28T06:19:37;2.00;99.90
8939;DHT22;4504;48.810;9.172;2023-01-28T06:22:05;1.90;99.90
8939;DHT22;4504;48.810;9.172;2023-01-28T06:24:32;1.90;99.90
8939;DHT22;4504;48.810;9.172;2023-01-28T06:26:59;2.00;99.90
8939;DHT22;4504;48.810;9.172;2023-01-28T06:29:26;2.00;99.90
8939;DHT22;4504;48.810;9.172;2023-01-28T06:31:55;2.00;99.90
8939;DHT22;4504;48.810;9.172;2023-01-28T06:34:21;2.00;99.90
8939;DHT22;4504;48.810;9.172;2023-01-28T06:36:48;2.00;99.90
8939;DHT22;4504;48.810;9.172;2023-01-28T06:39:17;2.00;99.90
8939;DHT22;4504;48.810;9.172;2023-01-28T06:41:46;2.00;99.90
8939;DHT22;4504;48.810;9.172;2023-01-28T06:44:13;2.00;99.90
8939;DHT22;4504;48.810;9.172;2023-01-28T06:46:40;2.00;99.90
8939;DHT22;4504;48.810;9.172;2023-01-28T06:49:08;2.00;99.90
8939;DHT22;4504;48.810;9.172;2023-01-28T06:51:35;2.00;99.90
8939;DHT22;4504;48.810;9.172;2023-01-28T06:54:02;2.00;99.90
8939;DHT22;4504;48.810;9.172;2023-01-28T06:56:29;2.00;99.90
8939;DHT22;4504;48.810;9.172;2023-01-28T06:58:56;2.00;99.90
8939;DHT22;4504;48.810;9.172;2023-01-28T07:01:23;2.00;99.90
8939;DHT22;4504;48.810;9.172;2023-01-28T07:03:50;2.10;99.90
8939;DHT22;4504;48.810;9.172;2023-01-28T07:06:18;2.00;99.90
8939;DHT22;4504;48.810;9.172;2023-01-28T07:08:46;2.10;99.90
8939;DHT22;4504;48.810;9.172;2023-01-28T07:11:13;2.00;99.90
8939;DHT22;4504;48.810;9.172;2023-01-28T07:13:40;2.00;99.90
8939;DHT22;4504;48.810;9.172;2023-01-28T07:16:07;2.00;99.90
8939;DHT22;4504;48.810;9.172;2023-01-28T07:18:34;2.00;99.90
8939;DHT22;4504;48.810;9.172;2023-01-28T07:21:00;2.00;99.90
8939;DHT22;4504;48.810;9.172;2023-01-28T07:23:29;2.00;99.90
8939;DHT22;4504;48.810;9.172;2023-01-28T07:26:00;2.00;99.90
8939;DHT22;4504;48.810;9.172;2023-01-28T07:28:27;2.10;99.90
8939;DHT22;4504;48.810;9.172;2023-01-28T07:30:54;2.10;99.90
8939;DHT22;4504;48.810;9.172;2023-01-28T07:33:21;2.10;99.90
8939;DHT22;4504;48.810;9.172;2023-01-28T07:35:48;2.10;99.90
8939;DHT22;4504;48.810;9.172;2023-01-28T07:38:15;2.10;99.90
8939;DHT22;4504;48.810;9.172;2023-01-28T07:40:44;2.10;99.90
8939;DHT22;4504;48.810;9.172;2023-01-28T07:43:11;2.10;99.90
8939;DHT22;4504;48.810;9.172;2023-01-28T07:45:39;2.10;99.90
8939;DHT22;4504;48.810;9.172;2023-01-28T07:48:08;2.10;99.90
8939;DHT22;4504;48.810;9.172;2023-01-28T07:50:36;2.10;99.90
8939;DHT22;4504;48.810;9.172;2023-01-28T07:53:05;2.10;99.90
8939;DHT22;4504;48.810;9.172;2023-01-28T07:55:33;2.10;99.90
8939;DHT22;4504;48.810;9.172;2023-01-28T07:58:03;2.10;99.90
8939;DHT22;4504;48.810;9.172;2023-01-28T08:00:32;2.00;99.90
8939;DHT22;4504;48.810;9.172;2023-01-28T08:03:00;2.00;99.90
8939;DHT22;4504;48.810;9.172;2023-01-28T08:05:36;2.10;99.90
8939;DHT22;4504;48.810;9.172;2023-01-28T08:08:06;2.00;99.90
8939;DHT22;4504;48.810;9.172;2023-01-28T08:10:34;2.00;99.90
8939;DHT22;4504;48.810;9.172;2023-01-28T08:13:02;2.10;99.90
8939;DHT22;4504;48.810;9.172;2023-01-28T08:15:30;2.10;99.90
8939;DHT22;4504;48.810;9.172;2023-01-28T08:17:57;2.10;99.90
8939;DHT22;4504;48.810;9.172;2023-01-28T08:20:26;2.10;99.90
8939;DHT22;4504;48.810;9.172;2023-01-28T08:23:02;2.20;99.90
8939;DHT22;4504;48.810;9.172;2023-01-28T08:25:29;2.20;99.90
8939;DHT22;4504;48.810;9.172;2023-01-28T08:27:56;2.20;99.90
8939;DHT22;4504;48.810;9.172;2023-01-28T08:30:25;2.20;99.90
8939;DHT22;4504;48.810;9.172;2023-01-28T08:32:54;2.20;99.90
8939;DHT22;4504;48.810;9.172;2023-01-28T08:35:21;2.30;99.90
8939;DHT22;4504;48.810;9.172;2023-01-28T08:37:48;2.30;99.90
8939;DHT22;4504;48.810;9.172;2023-01-28T08:40:15;2.30;99.90
8939;DHT22;4504;48.810;9.172;2023-01-28T08:42:46;2.30;99.90
8939;DHT22;4504;48.810;9.172;2023-01-28T08:45:13;2.30;99.90
8939;DHT22;4504;48.810;9.172;2023-01-28T08:47:48;2.30;99.90
8939;DHT22;4504;48.810;9.172;2023-01-28T08:50:15;2.40;99.90
8939;DHT22;4504;48.810;9.172;2023-01-28T08:52:43;2.40;99.90
8939;DHT22;4504;48.810;9.172;2023-01-28T08:55:10;2.40;99.90
8939;DHT22;4504;48.810;9.172;2023-01-28T08:57:38;2.40;99.90
8939;DHT22;4504;48.810;9.172;2023-01-28T09:00:06;2.40;99.90
8939;DHT22;4504;48.810;9.172;2023-01-28T09:02:35;2.40;99.90
8939;DHT22;4504;48.810;9.172;2023-01-28T09:05:04;2.50;99.90
8939;DHT22;4504;48.810;9.172;2023-01-28T09:07:33;2.50;99.90
8939;DHT22;4504;48.810;9.172;2023-01-28T09:10:00;2.60;99.90
8939;DHT22;4504;48.810;9.172;2023-01-28T09:12:27;2.60;99.90
8939;DHT22;4504;48.810;9.172;2023-01-28T09:14:54;2.70;99.90
8939;DHT22;4504;48.810;9.172;2023-01-28T09:17:21;2.70;99.90
8939;DHT22;4504;48.810;9.172;2023-01-28T09:19:48;2.70;99.90
8939;DHT22;4504;48.810;9.172;2023-01-28T09:22:16;2.70;99.90
8939;DHT22;4504;48.810;9.172;2023-01-28T09:24:44;2.70;99.90
8939;DHT22;4504;48.810;9.172;2023-01-28T09:27:11;2.70;99.90
8939;DHT22;4504;48.810;9.172;2023-01-28T09:29:38;2.80;99.90
8939;DHT22;4504;48.810;9.172;2023-01-28T09:32:05;2.80;99.90
8939;DHT22;4504;48.810;9.172;2023-01-28T09:34:33;2.80;99.90
8939;DHT22;4504;48.810;9.172;2023-01-28T09:37:00;2.90;99.90
8939;DHT22;4504;48.810;9.172;2023-01-28T09:39:29;3.00;99.90
8939;DHT22;4504;48.810;9.172;2023-01-28T09:42:05;3.10;99.90
8939;DHT22;4504;48.810;9.172;2023-01-28T09:44:47;3.10;99.90
8939;DHT22;4504;48.810;9.172;2023-01-28T09:47:23;3.10;99.90
8939;DHT22;4504;48.810;9.172;2023-01-28T09:49:53;3.10;99.90
8939;DHT22;4504;48.810;9.172;2023-01-28T09:52:23;3.10;99.90
8939;DHT22;4504;48.810;9.172;2023-01-28T09:54:57;3.10;99.90
8939;DHT22;4504;48.810;9.172;2023-01-28T09:57:28;3.10;99.90
8939;DHT22;4504;48.810;9.172;2023-01-28T09:59:57;3.10;99.90
8939;DHT22;4504;48.810;9.172;2023-01-28T10:02:48;3.10;99.90
8939;DHT22;4504;48.810;9.172;2023-01-28T10:05:21;3.10;99.90
8939;DHT22;4504;48.810;9.172;2023-01-28T10:07:57;3.00;99.90
8939;DHT22;4504;48.810;9.172;2023-01-28T10:10:31;3.00;99.90
8939;DHT22;4504;48.810;9.172;2023-01-28T10:13:06;3.00;99.90
8939;DHT22;4504;48.810;9.172;2023-01-28T10:15:58;3.00;99.90
8939;DHT22;4504;48.810;9.172;2023-01-28T10:18:34;3.00;99.90
8939;DHT22;4504;48.810;9.172;2023-01-28T10:21:10;3.00;99.90
8939;DHT22;4504;48.810;9.172;2023-01-28T10:23:45;3.00;99.90
8939;DHT22;4504;48.810;9.172;2023-01-28T10:26:22;3.00;99.90
8939;DHT22;4504;48.810;9.172;2023-01-28T10:28:53;3.10;99.90
8939;DHT22;4504;48.810;9.172;2023-01-28T10:31:22;3.00;99.90
8939;DHT22;4504;48.810;9.172;2023-01-28T10:33:49;3.00;99.90
8939;DHT22;4504;48.810;9.172;2023-01-28T10:36:16;3.00;99.90
8939;DHT22;4504;48.810;9.172;2023-01-28T10:38:43;3.00;99.90
8939;DHT22;4504;48.810;9.172;2023-01-28T10:41:16;2.90;99.90
8939;DHT22;4504;48.810;9.172;2023-01-28T10:43:47;3.00;99.90
8939;DHT22;4504;48.810;9.172;2023-01-28T10:46:18;2.90;99.90
8939;DHT22;4504;48.810;9.172;2023-01-28T10:48:53;3.00;99.90
8939;DHT22;4504;48.810;9.172;2023-01-28T10:51:30;3.00;99.90
8939;DHT22;4504;48.810;9.172;2023-01-28T10:53:57;3.00;99.90
8939;DHT22;4504;48.810;9.172;2023-01-28T10:56:26;3.00;99.90
8939;DHT22;4504;48.810;9.172;2023-01-28T10:59:00;3.00;99.90
8939;DHT22;4504;48.810;9.172;2023-01-28T11:01:41;3.00;99.90
8939;DHT22;4504;48.810;9.172;2023-01-28T11:04:21;3.00;99.90
8939;DHT22;4504;48.810;9.172;2023-01-28T11:06:56;3.00;99.90
8939;DHT22;4504;48.810;9.172;2023-01-28T11:09:25;3.00;99.90
8939;DHT22;4504;48.810;9.172;2023-01-28T11:11:55;3.00;99.90
8939;DHT22;4504;48.810;9.172;2023-01-28T11:14:29;3.10;99.90
8939;DHT22;4504;48.810;9.172;2023-01-28T11:16:57;3.10;99.90
8939;DHT22;4504;48.810;9.172;2023-01-28T11:19:29;3.10;99.90
8939;DHT22;4504;48.810;9.172;2023-01-28T11:21:58;3.10;99.90
8939;DHT22;4504;48.810;9.172;2023-01-28T11:24:27;3.20;99.90
8939;DHT22;4504;48.810;9.172;2023-01-28T11:26:57;3.20;99.90
8939;DHT22;4504;48.810;9.172;2023-01-28T11:29:29;3.20;99.90
8939;DHT22;4504;48.810;9.172;2023-01-28T11:31:58;3.20;99.90
8939;DHT22;4504;48.810;9.172;2023-01-28T11:34:27;3.20;99.90
8939;DHT22;4504;48.810;9.172;2023-01-28T11:37:01;3.20;99.90
8939;DHT22;4504;48.810;9.172;2023-01-28T11:39:29;3.10;99.90
8939;DHT22;4504;48.810;9.172;2023-01-28T11:42:10;3.10;99.90
8939;DHT22;4504;48.810;9.172;2023-01-28T11:44:39;3.10;99.90
8939;DHT22;4504;48.810;9.172;2023-01-28T11:47:18;3.10;99.90
8939;DHT22;4504;48.810;9.172;2023-01-28T11:50:00;3.10;99.90
8939;DHT22;4504;48.810;9.172;2023-01-28T11:52:40;3.10;99.90
8939;DHT22;4504;48.810;9.172;2023-01-28T11:55:20;3.10;99.90
8939;DHT22;4504;48.810;9.172;2023-01-28T11:57:55;3.10;99.90
8939;DHT22;4504;48.810;9.172;2023-01-28T12:00:43;3.00;99.90
8939;DHT22;4504;48.810;9.172;2023-01-28T12:03:26;3.00;99.90
8939;DHT22;4504;48.810;9.172;2023-01-28T12:06:00;3.00;99.90
8939;DHT22;4504;48.810;9.172;2023-01-28T12:08:37;3.10;99.90
8939;DHT22;4504;48.810;9.172;2023-01-28T12:11:21;3.10;99.90
8939;DHT22;4504;48.810;9.172;2023-01-28T12:14:20;3.00;99.90
8939;DHT22;4504;48.810;9.172;2023-01-28T12:17:05;3.00;99.90
8939;DHT22;4504;48.810;9.172;2023-01-28T12:19:45;3.00;99.90
8939;DHT22;4504;48.810;9.172;2023-01-28T12:22:35;3.00;99.90
8939;DHT22;4504;48.810;9.172;2023-01-28T12:25:18;3.00;99.90
8939;DHT22;4504;48.810;9.172;2023-01-28T12:27:51;2.90;99.90
8939;DHT22;4504;48.810;9.172;2023-01-28T12:30:24;2.90;99.90
8939;DHT22;4504;48.810;9.172;2023-01-28T12:35:55;2.90;99.90
8939;DHT22;4504;48.810;9.172;2023-01-28T12:38:39;2.90;99.90
8939;DHT22;4504;48.810;9.172;2023-01-28T12:41:14;2.90;99.90
8939;DHT22;4504;48.810;9.172;2023-01-28T12:43:45;2.90;99.90
8939;DHT22;4504;48.810;9.172;2023-01-28T12:46:22;2.90;99.90
8939;DHT22;4504;48.810;9.172;2023-01-28T12:48:57;2.90;99.90
8939;DHT22;4504;48.810;9.172;2023-01-28T12:51:29;3.00;99.90
8939;DHT22;4504;48.810;9.172;2023-01-28T12:54:01;3.00;99.90
8939;DHT22;4504;48.810;9.172;2023-01-28T12:56:32;3.00;99.90
8939;DHT22;4504;48.810;9.172;2023-01-28T12:59:04;3.00;99.90
8939;DHT22;4504;48.810;9.172;2023-01-28T13:01:41;3.00;99.90
8939;DHT22;4504;48.810;9.172;2023-01-28T13:04:18;2.90;99.90
8939;DHT22;4504;48.810;9.172;2023-01-28T13:06:55;2.90;99.90
8939;DHT22;4504;48.810;9.172;2023-01-28T13:09:28;2.90;99.90
8939;DHT22;4504;48.810;9.172;2023-01-28T13:12:01;2.90;99.90
8939;DHT22;4504;48.810;9.172;2023-01-28T13:14:31;2.90;99.90
8939;DHT22;4504;48.810;9.172;2023-01-28T13:17:08;2.90;99.90
8939;DHT22;4504;48.810;9.172;2023-01-28T13:19:38;2.90;99.90
8939;DHT22;4504;48.810;9.172;2023-01-28T13:22:24;2.90;99.90
8939;DHT22;4504;48.810;9.172;2023-01-28T13:24:51;3.00;99.90
8939;DHT22;4504;48.810;9.172;2023-01-28T13:27:23;2.90;99.90
8939;DHT22;4504;48.810;9.172;2023-01-28T13:30:05;2.90;99.90
8939;DHT22;4504;48.810;9.172;2023-01-28T13:32:54;2.90;99.90
8939;DHT22;4504;48.810;9.172;2023-01-28T13:35:29;2.80;99.90
8939;DHT22;4504;48.810;9.172;2023-01-28T13:37:57;2.80;99.90
8939;DHT22;4504;48.810;9.172;2023-01-28T13:40:26;2.80;99.90
8939;DHT22;4504;48.810;9.172;2023-01-28T13:42:59;2.80;99.90
8939;DHT22;4504;48.810;9.172;2023-01-28T13:45:26;2.80;99.90
8939;DHT22;4504;48.810;9.172;2023-01-28T13:47:58;2.70;99.90
8939;DHT22;4504;48.810;9.172;2023-01-28T13:50:36;2.70;99.90
8939;DHT22;4504;48.810;9.172;2023-01-28T13:53:15;2.70;99.90
8939;DHT22;4504;48.810;9.172;2023-01-28T13:55:44;2.70;99.90
8939;DHT22;4504;48.810;9.172;2023-01-28T13:58:48;2.70;99.90
8939;DHT22;4504;48.810;9.172;2023-01-28T14:01:51;2.70;99.90
8939;DHT22;4504;48.810;9.172;2023-01-28T14:04:42;2.80;99.90
8939;DHT22;4504;48.810;9.172;2023-01-28T14:07:44;2.70;99.90
8939;DHT22;4504;48.810;9.172;2023-01-28T14:10:33;2.80;99.90
8939;DHT22;4504;48.810;9.172;2023-01-28T14:13:13;2.70;99.90
8939;DHT22;4504;48.810;9.172;2023-01-28T14:16:08;2.80;99.90
8939;DHT22;4504;48.810;9.172;2023-01-28T14:18:41;2.80;99.90
8939;DHT22;4504;48.810;9.172;2023-01-28T14:21:11;2.80;99.90
8939;DHT22;4504;48.810;9.172;2023-01-28T14:23:44;2.80;99.90
8939;DHT22;4504;48.810;9.172;2023-01-28T14:26:25;2.80;99.90
8939;DHT22;4504;48.810;9.172;2023-01-28T14:29:18;2.80;99.90
8939;DHT22;4504;48.810;9.172;2023-01-28T14:31:48;2.80;99.90
8939;DHT22;4504;48.810;9.172;2023-01-28T14:34:21;2.80;99.90
8939;DHT22;4504;48.810;9.172;2023-01-28T14:36:51;2.80;99.90
8939;DHT22;4504;48.810;9.172;2023-01-28T14:39:24;2.80;99.90
8939;DHT22;4504;48.810;9.172;2023-01-28T14:41:53;2.80;99.90
8939;DHT22;4504;48.810;9.172;2023-01-28T14:44:27;2.80;99.90
8939;DHT22;4504;48.810;9.172;2023-01-28T14:47:12;2.80;99.90
8939;DHT22;4504;48.810;9.172;2023-01-28T14:49:54;2.80;99.90
8939;DHT22;4504;48.810;9.172;2023-01-28T14:55:44;2.80;99.90
8939;DHT22;4504;48.810;9.172;2023-01-28T14:58:17;2.80;99.90
8939;DHT22;4504;48.810;9.172;2023-01-28T15:00:52;2.80;99.90
8939;DHT22;4504;48.810;9.172;2023-01-28T15:03:20;2.80;99.90
8939;DHT22;4504;48.810;9.172;2023-01-28T15:05:48;2.80;99.90
8939;DHT22;4504;48.810;9.172;2023-01-28T15:08:21;2.80;99.90
8939;DHT22;4504;48.810;9.172;2023-01-28T15:10:51;2.80;99.90
8939;DHT22;4504;48.810;9.172;2023-01-28T15:13:24;2.80;99.90
8939;DHT22;4504;48.810;9.172;2023-01-28T15:15:52;2.90;99.90
8939;DHT22;4504;48.810;9.172;2023-01-28T15:18:28;2.80;99.90
8939;DHT22;4504;48.810;9.172;2023-01-28T15:20:56;2.80;99.90
8939;DHT22;4504;48.810;9.172;2023-01-28T15:23:27;2.80;99.90
8939;DHT22;4504;48.810;9.172;2023-01-28T15:25:59;2.80;99.90
8939;DHT22;4504;48.810;9.172;2023-01-28T15:28:31;2.90;99.90
8939;DHT22;4504;48.810;9.172;2023-01-28T15:30:59;2.80;99.90
8939;DHT22;4504;48.810;9.172;2023-01-28T15:33:26;2.80;99.90
8939;DHT22;4504;48.810;9.172;2023-01-28T15:35:54;2.70;99.90
8939;DHT22;4504;48.810;9.172;2023-01-28T15:38:23;2.80;99.90
8939;DHT22;4504;48.810;9.172;2023-01-28T15:40:54;2.80;99.90
8939;DHT22;4504;48.810;9.172;2023-01-28T15:43:25;2.80;99.90
8939;DHT22;4504;48.810;9.172;2023-01-28T15:45:54;2.80;99.90
8939;DHT22;4504;48.810;9.172;2023-01-28T15:48:24;2.80;99.90
8939;DHT22;4504;48.810;9.172;2023-01-28T15:50:58;2.80;99.90
8939;DHT22;4504;48.810;9.172;2023-01-28T15:53:28;2.80;99.90
8939;DHT22;4504;48.810;9.172;2023-01-28T15:56:04;2.80;99.90
8939;DHT22;4504;48.810;9.172;2023-01-28T15:58:33;2.80;99.90
8939;DHT22;4504;48.810;9.172;2023-01-28T16:01:11;2.80;99.90
8939;DHT22;4504;48.810;9.172;2023-01-28T16:03:39;2.80;99.90
8939;DHT22;4504;48.810;9.172;2023-01-28T16:06:08;2.80;99.90
8939;DHT22;4504;48.810;9.172;2023-01-28T16:08:39;2.80;99.90
8939;DHT22;4504;48.810;9.172;2023-01-28T16:11:07;2.80;99.90
8939;DHT22;4504;48.810;9.172;2023-01-28T16:13:41;2.90;99.90
8939;DHT22;4504;48.810;9.172;2023-01-28T16:16:10;2.70;99.90
8939;DHT22;4504;48.810;9.172;2023-01-28T16:18:39;2.70;99.90
8939;DHT22;4504;48.810;9.172;2023-01-28T16:21:09;2.70;99.90
8939;DHT22;4504;48.810;9.172;2023-01-28T16:23:38;2.80;99.90
8939;DHT22;4504;48.810;9.172;2023-01-28T16:26:06;2.80;99.90
8939;DHT22;4504;48.810;9.172;2023-01-28T16:28:46;2.70;99.90
8939;DHT22;4504;48.810;9.172;2023-01-28T16:31:13;2.80;99.90
8939;DHT22;4504;48.810;9.172;2023-01-28T16:33:40;2.80;99.90
8939;DHT22;4504;48.810;9.172;2023-01-28T16:36:09;2.80;99.90
8939;DHT22;4504;48.810;9.172;2023-01-28T16:38:36;2.70;99.90
8939;DHT22;4504;48.810;9.172;2023-01-28T16:41:03;2.70;99.90
8939;DHT22;4504;48.810;9.172;2023-01-28T16:43:31;2.70;99.90
8939;DHT22;4504;48.810;9.172;2023-01-28T16:45:59;2.70;99.90
8939;DHT22;4504;48.810;9.172;2023-01-28T16:48:26;2.70;99.90
8939;DHT22;4504;48.810;9.172;2023-01-28T16:50:55;2.70;99.90
8939;DHT22;4504;48.810;9.172;2023-01-28T16:53:27;2.70;99.90
8939;DHT22;4504;48.810;9.172;2023-01-28T16:55:56;2.70;99.90
8939;DHT22;4504;48.810;9.172;2023-01-28T16:58:24;2.70;99.90
8939;DHT22;4504;48.810;9.172;2023-01-28T17:00:52;2.70;99.90
8939;DHT22;4504;48.810;9.172;2023-01-28T17:03:21;2.70;99.90
8939;DHT22;4504;48.810;9.172;2023-01-28T17:05:48;2.80;99.90